sensor_id;sensor_type;location;lat;lon;timestamp;temperature;humidity
11838;DHT22;5978;51.020;6.764;2023-05-15T00:02:13;15.20;99.90
11838;DHT22;5978;51.020;6.764;2023-05-15T00:04:39;15.10;99.90
11838;DHT22;5978;51.020;6.764;2023-05-15T00:07:04;15.20;99.90
11838;DHT22;5978;51.020;6.764;2023-05-15T00:09:30;15.20;99.90
11838;DHT22;5978;51.020;6.764;2023-05-15T00:11:56;15.20;99.90
11838;DHT22;5978;51.020;6.764;2023-05-15T00:14:23;15.20;99.90
11838;DHT22;5978;51.020;6.764;2023-05-15T00:16:49;15.20;99.90
11838;DHT22;5978;51.020;6.764;2023-05-15T00:19:15;15.30;99.90
11838;DHT22;5978;51.020;6.764;2023-05-15T00:21:41;15.20;99.90
11838;DHT22;5978;51.020;6.764;2023-05-15T00:24:06;15.20;99.90
11838;DHT22;5978;51.020;6.764;2023-05-15T00:26:32;15.20;99.90
11838;DHT22;5978;51.020;6.764;2023-05-15T00:28:58;15.20;99.90
11838;DHT22;5978;51.020;6.764;2023-05-15T00:31:24;15.20;99.90
11838;DHT22;5978;51.020;6.764;2023-05-15T00:33:49;15.20;99.90
11838;DHT22;5978;51.020;6.764;2023-05-15T00:36:15;15.10;99.90
11838;DHT22;5978;51.020;6.764;2023-05-15T00:38:42;15.10;99.90
11838;DHT22;5978;51.020;6.764;2023-05-15T00:41:09;15.20;99.90
11838;DHT22;5978;51.020;6.764;2023-05-15T00:43:37;15.20;99.90
11838;DHT22;5978;51.020;6.764;2023-05-15T00:46:03;15.20;99.90
11838;DHT22;5978;51.020;6.764;2023-05-15T00:48:31;15.10;99.90
11838;DHT22;5978;51.020;6.764;2023-05-15T00:50:58;15.10;99.90
11838;DHT22;5978;51.020;6.764;2023-05-15T00:53:26;15.20;99.90
11838;DHT22;5978;51.020;6.764;2023-05-15T00:55:54;15.20;99.90
11838;DHT22;5978;51.020;6.764;2023-05-15T00:58:21;15.20;99.90
11838;DHT22;5978;51.020;6.764;2023-05-15T01:00:49;15.20;99.90
11838;DHT22;5978;51.020;6.764;2023-05-15T01:03:16;15.40;99.90
11838;DHT22;5978;51.020;6.764;2023-05-15T01:05:42;15.40;99.90
11838;DHT22;5978;51.020;6.764;2023-05-15T01:08:35;15.40;99.90
11838;DHT22;5978;51.020;6.764;2023-05-15T01:11:03;15.50;99.90
11838;DHT22;5978;51.020;6.764;2023-05-15T01:13:30;15.50;99.90
11838;DHT22;5978;51.020;6.764;2023-05-15T01:15:56;15.40;99.90
11838;DHT22;5978;51.020;6.764;2023-05-15T01:18:22;15.50;99.90
11838;DHT22;5978;51.020;6.764;2023-05-15T01:21:14;15.50;99.90
11838;DHT22;5978;51.020;6.764;2023-05-15T01:29:43;15.70;99.90
11838;DHT22;5978;51.020;6.764;2023-05-15T01:32:18;15.80;99.90
11838;DHT22;5978;51.020;6.764;2023-05-15T01:34:51;15.70;99.90
11838;DHT22;5978;51.020;6.764;2023-05-15T01:37:21;15.80;99.90
11838;DHT22;5978;51.020;6.764;2023-05-15T01:39:52;15.70;99.90
11838;DHT22;5978;51.020;6.764;2023-05-15T01:42:18;15.80;99.90
11838;DHT22;5978;51.020;6.764;2023-05-15T01:44:54;15.70;99.90
11838;DHT22;5978;51.020;6.764;2023-05-15T01:47:33;15.70;99.90
11838;DHT22;5978;51.020;6.764;2023-05-15T01:50:01;15.60;99.90
11838;DHT22;5978;51.020;6.764;2023-05-15T01:52:34;15.60;99.90
11838;DHT22;5978;51.020;6.764;2023-05-15T01:55:02;15.50;99.90
11838;DHT22;5978;51.020;6.764;2023-05-15T01:57:30;15.50;99.90
11838;DHT22;5978;51.020;6.764;2023-05-15T01:59:57;15.50;99.90
11838;DHT22;5978;51.020;6.764;2023-05-15T02:02:24;15.60;99.90
11838;DHT22;5978;51.020;6.764;2023-05-15T02:04:51;15.50;99.90
11838;DHT22;5978;51.020;6.764;2023-05-15T02:07:17;15.50;99.90
11838;DHT22;5978;51.020;6.764;2023-05-15T02:09:44;15.40;99.90
11838;DHT22;5978;51.020;6.764;2023-05-15T02:12:10;15.30;99.90
11838;DHT22;5978;51.020;6.764;2023-05-15T02:14:37;15.40;99.90
11838;DHT22;5978;51.020;6.764;2023-05-15T02:17:05;15.20;99.90
11838;DHT22;5978;51.020;6.764;2023-05-15T02:19:31;15.10;99.90
11838;DHT22;5978;51.020;6.764;2023-05-15T02:21:57;15.10;99.90
11838;DHT22;5978;51.020;6.764;2023-05-15T02:24:22;15.10;99.90
11838;DHT22;5978;51.020;6.764;2023-05-15T02:27:18;15.10;99.90
11838;DHT22;5978;51.020;6.764;2023-05-15T02:35:31;15.10;99.90
11838;DHT22;5978;51.020;6.764;2023-05-15T02:38:02;15.20;99.90
11838;DHT22;5978;51.020;6.764;2023-05-15T02:40:31;15.20;99.90
11838;DHT22;5978;51.020;6.764;2023-05-15T02:42:59;15.10;99.90
11838;DHT22;5978;51.020;6.764;2023-05-15T02:45:25;15.10;99.90
11838;DHT22;5978;51.020;6.764;2023-05-15T02:47:51;15.00;99.90
11838;DHT22;5978;51.020;6.764;2023-05-15T02:50:18;15.10;99.90
11838;DHT22;5978;51.020;6.764;2023-05-15T02:52:44;15.20;99.90
11838;DHT22;5978;51.020;6.764;2023-05-15T02:55:10;15.20;99.90
11838;DHT22;5978;51.020;6.764;2023-05-15T02:57:35;15.20;99.90
11838;DHT22;5978;51.020;6.764;2023-05-15T03:00:01;15.30;99.90
11838;DHT22;5978;51.020;6.764;2023-05-15T03:02:29;15.30;99.90
11838;DHT22;5978;51.020;6.764;2023-05-15T03:04:55;15.20;99.90
11838;DHT22;5978;51.020;6.764;2023-05-15T03:07:21;15.10;99.90
11838;DHT22;5978;51.020;6.764;2023-05-15T03:09:46;15.10;99.90
11838;DHT22;5978;51.020;6.764;2023-05-15T03:12:13;15.00;99.90
11838;DHT22;5978;51.020;6.764;2023-05-15T03:14:38;15.00;99.90
11838;DHT22;5978;51.020;6.764;2023-05-15T03:17:04;15.00;99.90
11838;DHT22;5978;51.020;6.764;2023-05-15T03:19:30;15.00;99.90
11838;DHT22;5978;51.020;6.764;2023-05-15T03:21:56;14.90;99.90
11838;DHT22;5978;51.020;6.764;2023-05-15T03:24:22;14.90;99.90
11838;DHT22;5978;51.020;6.764;2023-05-15T03:26:47;14.90;99.90
11838;DHT22;5978;51.020;6.764;2023-05-15T03:29:13;14.90;99.90
11838;DHT22;5978;51.020;6.764;2023-05-15T03:31:39;14.80;99.90
11838;DHT22;5978;51.020;6.764;2023-05-15T03:34:05;14.80;99.90
11838;DHT22;5978;51.020;6.764;2023-05-15T03:36:31;14.70;99.90
11838;DHT22;5978;51.020;6.764;2023-05-15T03:38:56;14.70;99.90
11838;DHT22;5978;51.020;6.764;2023-05-15T03:41:22;14.60;99.90
11838;DHT22;5978;51.020;6.764;2023-05-15T03:43:47;14.60;99.90
11838;DHT22;5978;51.020;6.764;2023-05-15T03:46:14;14.60;99.90
11838;DHT22;5978;51.020;6.764;2023-05-15T03:48:39;14.60;99.90
11838;DHT22;5978;51.020;6.764;2023-05-15T03:51:05;14.60;99.90
11838;DHT22;5978;51.020;6.764;2023-05-15T03:53:31;14.60;99.90
11838;DHT22;5978;51.020;6.764;2023-05-15T03:55:57;14.70;99.90
11838;DHT22;5978;51.020;6.764;2023-05-15T03:58:22;14.80;99.90
11838;DHT22;5978;51.020;6.764;2023-05-15T04:00:48;14.70;99.90
11838;DHT22;5978;51.020;6.764;2023-05-15T04:03:14;14.80;99.90
11838;DHT22;5978;51.020;6.764;2023-05-15T04:05:39;14.80;99.90
11838;DHT22;5978;51.020;6.764;2023-05-15T04:08:06;14.80;99.90
11838;DHT22;5978;51.020;6.764;2023-05-15T04:10:31;14.70;99.90
11838;DHT22;5978;51.020;6.764;2023-05-15T04:12:58;14.70;99.90
11838;DHT22;5978;51.020;6.764;2023-05-15T04:15:24;14.70;99.90
11838;DHT22;5978;51.020;6.764;2023-05-15T04:17:52;14.70;99.90
11838;DHT22;5978;51.020;6.764;2023-05-15T04:20:23;14.70;99.90
11838;DHT22;5978;51.020;6.764;2023-05-15T04:22:49;14.60;99.90
11838;DHT22;5978;51.020;6.764;2023-05-15T04:25:15;14.70;99.90
11838;DHT22;5978;51.020;6.764;2023-05-15T04:27:41;14.70;99.90
11838;DHT22;5978;51.020;6.764;2023-05-15T04:30:08;14.70;99.90
11838;DHT22;5978;51.020;6.764;2023-05-15T04:32:34;14.80;99.90
11838;DHT22;5978;51.020;6.764;2023-05-15T04:35:01;14.80;99.90
11838;DHT22;5978;51.020;6.764;2023-05-15T04:37:28;14.70;99.90
11838;DHT22;5978;51.020;6.764;2023-05-15T04:39:54;14.70;99.90
11838;DHT22;5978;51.020;6.764;2023-05-15T04:42:20;14.70;99.90
11838;DHT22;5978;51.020;6.764;2023-05-15T04:44:45;14.70;99.90
11838;DHT22;5978;51.020;6.764;2023-05-15T04:47:12;14.80;99.90
11838;DHT22;5978;51.020;6.764;2023-05-15T04:49:38;14.80;99.90
11838;DHT22;5978;51.020;6.764;2023-05-15T04:52:04;14.70;99.90
11838;DHT22;5978;51.020;6.764;2023-05-15T04:54:30;14.80;99.90
11838;DHT22;5978;51.020;6.764;2023-05-15T04:56:55;14.80;99.90
11838;DHT22;5978;51.020;6.764;2023-05-15T04:59:22;14.80;99.90
11838;DHT22;5978;51.020;6.764;2023-05-15T05:01:49;14.70;99.90
11838;DHT22;5978;51.020;6.764;2023-05-15T05:04:15;14.80;99.90
11838;DHT22;5978;51.020;6.764;2023-05-15T05:06:44;14.90;99.90
11838;DHT22;5978;51.020;6.764;2023-05-15T05:09:09;14.90;99.90
11838;DHT22;5978;51.020;6.764;2023-05-15T05:11:35;14.90;99.90
11838;DHT22;5978;51.020;6.764;2023-05-15T05:14:03;14.90;99.90
11838;DHT22;5978;51.020;6.764;2023-05-15T05:16:29;15.00;99.90
11838;DHT22;5978;51.020;6.764;2023-05-15T05:18:55;15.00;99.90
11838;DHT22;5978;51.020;6.764;2023-05-15T05:21:20;15.10;99.90
11838;DHT22;5978;51.020;6.764;2023-05-15T05:23:46;15.00;99.90
11838;DHT22;5978;51.020;6.764;2023-05-15T05:26:12;15.00;99.90
11838;DHT22;5978;51.020;6.764;2023-05-15T05:28:37;14.90;99.90
11838;DHT22;5978;51.020;6.764;2023-05-15T05:31:03;14.90;99.90
11838;DHT22;5978;51.020;6.764;2023-05-15T05:33:29;14.60;99.90
11838;DHT22;5978;51.020;6.764;2023-05-15T05:35:54;14.70;99.90
11838;DHT22;5978;51.020;6.764;2023-05-15T05:38:20;14.70;99.90
11838;DHT22;5978;51.020;6.764;2023-05-15T05:40:46;14.70;99.90
11838;DHT22;5978;51.020;6.764;2023-05-15T05:43:12;14.60;99.90
11838;DHT22;5978;51.020;6.764;2023-05-15T05:45:37;14.60;99.90
11838;DHT22;5978;51.020;6.764;2023-05-15T05:48:03;14.60;99.90
11838;DHT22;5978;51.020;6.764;2023-05-15T05:50:29;14.60;99.90
11838;DHT22;5978;51.020;6.764;2023-05-15T05:52:54;14.50;99.90
11838;DHT22;5978;51.020;6.764;2023-05-15T05:55:20;14.40;99.90
11838;DHT22;5978;51.020;6.764;2023-05-15T05:57:46;14.30;99.90
11838;DHT22;5978;51.020;6.764;2023-05-15T06:00:12;14.20;99.90
11838;DHT22;5978;51.020;6.764;2023-05-15T06:02:39;14.10;99.90
11838;DHT22;5978;51.020;6.764;2023-05-15T06:05:05;13.90;99.90
11838;DHT22;5978;51.020;6.764;2023-05-15T06:07:32;14.00;99.90
11838;DHT22;5978;51.020;6.764;2023-05-15T06:09:58;14.10;99.90
11838;DHT22;5978;51.020;6.764;2023-05-15T06:12:24;14.30;99.90
11838;DHT22;5978;51.020;6.764;2023-05-15T06:14:50;14.40;99.90
11838;DHT22;5978;51.020;6.764;2023-05-15T06:17:16;14.50;99.90
11838;DHT22;5978;51.020;6.764;2023-05-15T06:19:42;14.80;99.90
11838;DHT22;5978;51.020;6.764;2023-05-15T06:22:07;15.00;99.90
11838;DHT22;5978;51.020;6.764;2023-05-15T06:24:33;15.10;99.90
11838;DHT22;5978;51.020;6.764;2023-05-15T06:26:59;15.20;99.90
11838;DHT22;5978;51.020;6.764;2023-05-15T06:29:25;15.30;99.90
11838;DHT22;5978;51.020;6.764;2023-05-15T06:31:51;15.30;99.90
11838;DHT22;5978;51.020;6.764;2023-05-15T06:34:17;15.40;99.90
11838;DHT22;5978;51.020;6.764;2023-05-15T06:36:43;15.40;99.90
11838;DHT22;5978;51.020;6.764;2023-05-15T06:39:09;15.30;99.90
11838;DHT22;5978;51.020;6.764;2023-05-15T06:41:36;15.20;99.90
11838;DHT22;5978;51.020;6.764;2023-05-15T06:44:02;15.30;99.90
11838;DHT22;5978;51.020;6.764;2023-05-15T06:46:28;15.10;99.90
11838;DHT22;5978;51.020;6.764;2023-05-15T06:48:53;15.10;99.90
11838;DHT22;5978;51.020;6.764;2023-05-15T06:51:19;15.20;99.90
11838;DHT22;5978;51.020;6.764;2023-05-15T06:53:45;15.30;99.90
11838;DHT22;5978;51.020;6.764;2023-05-15T06:56:11;15.20;99.90
11838;DHT22;5978;51.020;6.764;2023-05-15T06:58:36;15.00;99.90
11838;DHT22;5978;51.020;6.764;2023-05-15T07:01:02;14.90;99.90
11838;DHT22;5978;51.020;6.764;2023-05-15T07:03:29;14.90;99.90
11838;DHT22;5978;51.020;6.764;2023-05-15T07:05:55;14.80;99.90
11838;DHT22;5978;51.020;6.764;2023-05-15T07:08:20;14.90;99.90
11838;DHT22;5978;51.020;6.764;2023-05-15T07:10:47;15.00;99.90
11838;DHT22;5978;51.020;6.764;2023-05-15T07:13:16;15.00;99.90
11838;DHT22;5978;51.020;6.764;2023-05-15T07:15:42;15.00;99.90
11838;DHT22;5978;51.020;6.764;2023-05-15T07:18:08;15.10;99.90
11838;DHT22;5978;51.020;6.764;2023-05-15T07:20:34;15.20;99.90
11838;DHT22;5978;51.020;6.764;2023-05-15T07:23:00;15.20;99.90
11838;DHT22;5978;51.020;6.764;2023-05-15T07:25:26;15.20;99.90
11838;DHT22;5978;51.020;6.764;2023-05-15T07:27:52;15.20;99.90
11838;DHT22;5978;51.020;6.764;2023-05-15T07:30:18;15.20;99.90
11838;DHT22;5978;51.020;6.764;2023-05-15T07:32:43;15.20;99.90
11838;DHT22;5978;51.020;6.764;2023-05-15T07:35:09;15.40;99.90
11838;DHT22;5978;51.020;6.764;2023-05-15T07:37:36;15.30;99.90
11838;DHT22;5978;51.020;6.764;2023-05-15T07:40:02;15.40;99.90
11838;DHT22;5978;51.020;6.764;2023-05-15T07:42:29;15.50;99.90
11838;DHT22;5978;51.020;6.764;2023-05-15T07:44:55;15.60;99.90
11838;DHT22;5978;51.020;6.764;2023-05-15T07:47:21;15.80;99.90
11838;DHT22;5978;51.020;6.764;2023-05-15T07:49:47;15.90;99.90
11838;DHT22;5978;51.020;6.764;2023-05-15T07:52:12;15.80;99.90
11838;DHT22;5978;51.020;6.764;2023-05-15T07:54:39;15.80;99.90
11838;DHT22;5978;51.020;6.764;2023-05-15T07:57:07;15.70;99.90
11838;DHT22;5978;51.020;6.764;2023-05-15T07:59:33;15.70;99.90
11838;DHT22;5978;51.020;6.764;2023-05-15T08:01:59;15.60;99.90
11838;DHT22;5978;51.020;6.764;2023-05-15T08:04:24;15.60;99.90
11838;DHT22;5978;51.020;6.764;2023-05-15T08:06:50;15.60;99.90
11838;DHT22;5978;51.020;6.764;2023-05-15T08:09:16;15.80;99.90
11838;DHT22;5978;51.020;6.764;2023-05-15T08:11:42;16.00;99.90
11838;DHT22;5978;51.020;6.764;2023-05-15T08:14:08;16.00;99.90
11838;DHT22;5978;51.020;6.764;2023-05-15T08:16:34;16.20;99.90
11838;DHT22;5978;51.020;6.764;2023-05-15T08:19:00;16.00;99.90
11838;DHT22;5978;51.020;6.764;2023-05-15T08:21:29;16.10;99.90
11838;DHT22;5978;51.020;6.764;2023-05-15T08:23:56;15.90;99.90
11838;DHT22;5978;51.020;6.764;2023-05-15T08:26:21;16.00;99.90
11838;DHT22;5978;51.020;6.764;2023-05-15T08:28:47;16.30;99.90
11838;DHT22;5978;51.020;6.764;2023-05-15T08:31:13;16.60;99.90
11838;DHT22;5978;51.020;6.764;2023-05-15T08:33:38;16.80;99.90
11838;DHT22;5978;51.020;6.764;2023-05-15T08:36:04;17.00;99.90
11838;DHT22;5978;51.020;6.764;2023-05-15T08:38:30;17.30;99.90
11838;DHT22;5978;51.020;6.764;2023-05-15T08:40:58;17.60;99.90
11838;DHT22;5978;51.020;6.764;2023-05-15T08:43:29;17.60;99.90
11838;DHT22;5978;51.020;6.764;2023-05-15T08:45:59;17.70;99.90
11838;DHT22;5978;51.020;6.764;2023-05-15T08:48:28;18.10;99.90
11838;DHT22;5978;51.020;6.764;2023-05-15T08:50:56;18.40;99.90
11838;DHT22;5978;51.020;6.764;2023-05-15T08:53:22;18.80;99.90
11838;DHT22;5978;51.020;6.764;2023-05-15T08:55:48;19.10;99.90
11838;DHT22;5978;51.020;6.764;2023-05-15T08:58:15;19.20;99.90
11838;DHT22;5978;51.020;6.764;2023-05-15T09:00:46;19.20;99.90
11838;DHT22;5978;51.020;6.764;2023-05-15T09:03:14;19.30;99.90
11838;DHT22;5978;51.020;6.764;2023-05-15T09:05:40;19.50;99.90
11838;DHT22;5978;51.020;6.764;2023-05-15T09:08:07;19.80;99.90
11838;DHT22;5978;51.020;6.764;2023-05-15T09:10:33;20.10;99.90
11838;DHT22;5978;51.020;6.764;2023-05-15T09:13:01;20.20;99.90
11838;DHT22;5978;51.020;6.764;2023-05-15T09:15:27;20.10;99.90
11838;DHT22;5978;51.020;6.764;2023-05-15T09:17:55;20.30;99.90
11838;DHT22;5978;51.020;6.764;2023-05-15T09:20:32;20.40;99.90
11838;DHT22;5978;51.020;6.764;2023-05-15T09:23:00;20.10;99.90
11838;DHT22;5978;51.020;6.764;2023-05-15T09:25:39;20.10;99.90
11838;DHT22;5978;51.020;6.764;2023-05-15T09:28:08;19.70;99.90
11838;DHT22;5978;51.020;6.764;2023-05-15T09:30:37;19.80;99.90
11838;DHT22;5978;51.020;6.764;2023-05-15T09:33:03;19.90;99.90
11838;DHT22;5978;51.020;6.764;2023-05-15T09:35:34;20.00;99.90
11838;DHT22;5978;51.020;6.764;2023-05-15T09:38:01;20.00;99.90
11838;DHT22;5978;51.020;6.764;2023-05-15T09:40:30;19.90;99.90
11838;DHT22;5978;51.020;6.764;2023-05-15T09:42:57;20.10;99.90
11838;DHT22;5978;51.020;6.764;2023-05-15T09:45:23;19.90;99.90
11838;DHT22;5978;51.020;6.764;2023-05-15T09:47:51;20.30;99.90
11838;DHT22;5978;51.020;6.764;2023-05-15T09:50:32;20.50;99.90
11838;DHT22;5978;51.020;6.764;2023-05-15T09:52:59;20.80;99.90
11838;DHT22;5978;51.020;6.764;2023-05-15T09:55:25;20.50;99.90
11838;DHT22;5978;51.020;6.764;2023-05-15T09:58:04;20.90;99.90
11838;DHT22;5978;51.020;6.764;2023-05-15T10:00:31;21.10;99.90
11838;DHT22;5978;51.020;6.764;2023-05-15T10:02:57;21.20;99.90
11838;DHT22;5978;51.020;6.764;2023-05-15T10:05:28;21.00;99.90
11838;DHT22;5978;51.020;6.764;2023-05-15T10:07:55;21.00;99.90
11838;DHT22;5978;51.020;6.764;2023-05-15T10:10:22;21.00;99.90
11838;DHT22;5978;51.020;6.764;2023-05-15T10:12:52;21.20;99.90
11838;DHT22;5978;51.020;6.764;2023-05-15T10:15:18;21.40;99.90
11838;DHT22;5978;51.020;6.764;2023-05-15T10:17:46;21.50;99.90
11838;DHT22;5978;51.020;6.764;2023-05-15T10:20:13;21.60;98.50
11838;DHT22;5978;51.020;6.764;2023-05-15T10:22:40;21.60;99.90
11838;DHT22;5978;51.020;6.764;2023-05-15T10:27:50;21.50;99.90
11838;DHT22;5978;51.020;6.764;2023-05-15T10:30:18;21.60;99.90
11838;DHT22;5978;51.020;6.764;2023-05-15T10:32:44;21.80;99.90
11838;DHT22;5978;51.020;6.764;2023-05-15T10:35:11;21.80;99.90
11838;DHT22;5978;51.020;6.764;2023-05-15T10:37:40;22.10;99.90
11838;DHT22;5978;51.020;6.764;2023-05-15T10:40:08;22.40;99.90
11838;DHT22;5978;51.020;6.764;2023-05-15T10:42:35;22.40;99.40
11838;DHT22;5978;51.020;6.764;2023-05-15T10:45:02;22.60;99.50
11838;DHT22;5978;51.020;6.764;2023-05-15T10:47:29;22.80;99.90
11838;DHT22;5978;51.020;6.764;2023-05-15T10:49:57;23.00;96.00
11838;DHT22;5978;51.020;6.764;2023-05-15T10:52:23;23.20;91.10
11838;DHT22;5978;51.020;6.764;2023-05-15T10:54:51;23.30;93.10
11838;DHT22;5978;51.020;6.764;2023-05-15T10:57:17;23.20;89.30
11838;DHT22;5978;51.020;6.764;2023-05-15T10:59:42;23.60;90.60
11838;DHT22;5978;51.020;6.764;2023-05-15T11:02:20;23.60;85.50
11838;DHT22;5978;51.020;6.764;2023-05-15T11:04:46;23.90;90.70
11838;DHT22;5978;51.020;6.764;2023-05-15T11:07:15;24.40;88.90
11838;DHT22;5978;51.020;6.764;2023-05-15T11:09:42;24.70;86.30
11838;DHT22;5978;51.020;6.764;2023-05-15T11:12:10;24.80;80.00
11838;DHT22;5978;51.020;6.764;2023-05-15T11:17:08;24.70;81.20
11838;DHT22;5978;51.020;6.764;2023-05-15T11:19:36;25.50;74.60
11838;DHT22;5978;51.020;6.764;2023-05-15T11:24:48;26.10;68.30
11838;DHT22;5978;51.020;6.764;2023-05-15T11:27:19;26.50;67.00
11838;DHT22;5978;51.020;6.764;2023-05-15T11:33:00;26.60;63.30
11838;DHT22;5978;51.020;6.764;2023-05-15T11:35:38;27.00;61.90
11838;DHT22;5978;51.020;6.764;2023-05-15T11:38:17;27.60;59.30
11838;DHT22;5978;51.020;6.764;2023-05-15T11:40:52;27.80;60.00
11838;DHT22;5978;51.020;6.764;2023-05-15T11:43:23;28.00;58.90
11838;DHT22;5978;51.020;6.764;2023-05-15T11:48:23;28.80;55.40
11838;DHT22;5978;51.020;6.764;2023-05-15T11:50:50;29.40;55.30
11838;DHT22;5978;51.020;6.764;2023-05-15T11:53:19;29.10;53.50
11838;DHT22;5978;51.020;6.764;2023-05-15T11:55:45;29.20;54.50
11838;DHT22;5978;51.020;6.764;2023-05-15T11:58:13;29.30;53.30
11838;DHT22;5978;51.020;6.764;2023-05-15T12:00:40;29.50;54.60
11838;DHT22;5978;51.020;6.764;2023-05-15T12:03:14;30.30;54.80
11838;DHT22;5978;51.020;6.764;2023-05-15T12:05:41;30.60;52.30
11838;DHT22;5978;51.020;6.764;2023-05-15T12:08:12;31.10;51.70
11838;DHT22;5978;51.020;6.764;2023-05-15T12:10:42;30.40;51.20
11838;DHT22;5978;51.020;6.764;2023-05-15T12:13:09;30.40;52.00
11838;DHT22;5978;51.020;6.764;2023-05-15T12:15:41;30.50;50.00
11838;DHT22;5978;51.020;6.764;2023-05-15T12:18:07;30.80;50.50
11838;DHT22;5978;51.020;6.764;2023-05-15T12:20:37;31.40;50.50
11838;DHT22;5978;51.020;6.764;2023-05-15T12:23:05;31.90;49.90
11838;DHT22;5978;51.020;6.764;2023-05-15T12:25:35;31.50;49.40
11838;DHT22;5978;51.020;6.764;2023-05-15T12:28:03;31.70;49.10
11838;DHT22;5978;51.020;6.764;2023-05-15T12:30:30;31.30;48.70
11838;DHT22;5978;51.020;6.764;2023-05-15T12:33:07;30.80;49.30
11838;DHT22;5978;51.020;6.764;2023-05-15T12:35:43;31.60;49.90
11838;DHT22;5978;51.020;6.764;2023-05-15T12:38:14;32.70;49.30
11838;DHT22;5978;51.020;6.764;2023-05-15T12:40:43;33.50;47.60
11838;DHT22;5978;51.020;6.764;2023-05-15T12:43:12;33.90;45.40
11838;DHT22;5978;51.020;6.764;2023-05-15T12:45:39;34.30;45.80
11838;DHT22;5978;51.020;6.764;2023-05-15T12:48:05;34.50;45.10
11838;DHT22;5978;51.020;6.764;2023-05-15T12:50:33;33.80;45.50
11838;DHT22;5978;51.020;6.764;2023-05-15T12:53:05;33.10;45.00
11838;DHT22;5978;51.020;6.764;2023-05-15T12:55:32;32.50;46.20
11838;DHT22;5978;51.020;6.764;2023-05-15T12:58:00;32.20;46.30
11838;DHT22;5978;51.020;6.764;2023-05-15T13:00:28;32.20;46.60
11838;DHT22;5978;51.020;6.764;2023-05-15T13:02:56;32.10;46.90
11838;DHT22;5978;51.020;6.764;2023-05-15T13:05:23;32.20;46.20
11838;DHT22;5978;51.020;6.764;2023-05-15T13:07:49;32.40;46.30
11838;DHT22;5978;51.020;6.764;2023-05-15T13:10:22;32.30;47.10
11838;DHT22;5978;51.020;6.764;2023-05-15T13:12:50;32.00;46.60
11838;DHT22;5978;51.020;6.764;2023-05-15T13:15:30;32.30;46.70
11838;DHT22;5978;51.020;6.764;2023-05-15T13:18:15;33.40;45.90
11838;DHT22;5978;51.020;6.764;2023-05-15T13:20:43;33.80;45.40
11838;DHT22;5978;51.020;6.764;2023-05-15T13:23:11;32.30;45.30
11838;DHT22;5978;51.020;6.764;2023-05-15T13:25:37;31.10;46.90
11838;DHT22;5978;51.020;6.764;2023-05-15T13:28:06;30.60;46.70
11838;DHT22;5978;51.020;6.764;2023-05-15T13:30:33;31.70;47.00
11838;DHT22;5978;51.020;6.764;2023-05-15T13:32:59;32.40;46.50
11838;DHT22;5978;51.020;6.764;2023-05-15T13:35:25;33.10;45.60
11838;DHT22;5978;51.020;6.764;2023-05-15T13:37:51;33.20;44.80
11838;DHT22;5978;51.020;6.764;2023-05-15T13:40:17;33.50;44.90
11838;DHT22;5978;51.020;6.764;2023-05-15T13:42:44;32.60;44.80
11838;DHT22;5978;51.020;6.764;2023-05-15T13:45:13;31.30;45.70
11838;DHT22;5978;51.020;6.764;2023-05-15T13:47:40;29.70;47.20
11838;DHT22;5978;51.020;6.764;2023-05-15T13:50:10;28.70;48.20
11838;DHT22;5978;51.020;6.764;2023-05-15T13:52:36;29.40;50.20
11838;DHT22;5978;51.020;6.764;2023-05-15T13:55:02;29.80;50.90
11838;DHT22;5978;51.020;6.764;2023-05-15T13:57:31;29.60;52.30
11838;DHT22;5978;51.020;6.764;2023-05-15T13:59:57;29.60;53.00
11838;DHT22;5978;51.020;6.764;2023-05-15T14:02:23;28.80;53.40
11838;DHT22;5978;51.020;6.764;2023-05-15T14:04:53;29.30;53.30
11838;DHT22;5978;51.020;6.764;2023-05-15T14:07:22;29.00;53.50
11838;DHT22;5978;51.020;6.764;2023-05-15T14:09:49;28.40;54.40
11838;DHT22;5978;51.020;6.764;2023-05-15T14:12:15;28.30;55.20
11838;DHT22;5978;51.020;6.764;2023-05-15T14:14:41;29.00;55.60
11838;DHT22;5978;51.020;6.764;2023-05-15T14:17:07;29.90;54.80
11838;DHT22;5978;51.020;6.764;2023-05-15T14:19:32;29.40;53.40
11838;DHT22;5978;51.020;6.764;2023-05-15T14:21:59;29.50;53.60
11838;DHT22;5978;51.020;6.764;2023-05-15T14:24:25;29.10;53.10
11838;DHT22;5978;51.020;6.764;2023-05-15T14:26:51;28.70;53.00
11838;DHT22;5978;51.020;6.764;2023-05-15T14:29:17;28.90;53.70
11838;DHT22;5978;51.020;6.764;2023-05-15T14:31:43;29.30;53.30
11838;DHT22;5978;51.020;6.764;2023-05-15T14:34:09;28.60;53.70
11838;DHT22;5978;51.020;6.764;2023-05-15T14:36:35;28.90;54.10
11838;DHT22;5978;51.020;6.764;2023-05-15T14:39:01;29.10;53.80
11838;DHT22;5978;51.020;6.764;2023-05-15T14:41:27;29.40;54.10
11838;DHT22;5978;51.020;6.764;2023-05-15T14:43:53;29.30;53.50
11838;DHT22;5978;51.020;6.764;2023-05-15T14:46:19;28.90;53.30
11838;DHT22;5978;51.020;6.764;2023-05-15T14:48:44;28.60;53.60
11838;DHT22;5978;51.020;6.764;2023-05-15T14:51:10;28.50;54.30
11838;DHT22;5978;51.020;6.764;2023-05-15T14:53:36;27.90;55.00
11838;DHT22;5978;51.020;6.764;2023-05-15T14:56:03;27.80;55.60
11838;DHT22;5978;51.020;6.764;2023-05-15T14:58:28;27.10;55.50
11838;DHT22;5978;51.020;6.764;2023-05-15T15:00:55;26.80;56.70
11838;DHT22;5978;51.020;6.764;2023-05-15T15:03:21;26.90;56.30
11838;DHT22;5978;51.020;6.764;2023-05-15T15:05:49;26.70;56.00
11838;DHT22;5978;51.020;6.764;2023-05-15T15:08:16;26.90;56.50
11838;DHT22;5978;51.020;6.764;2023-05-15T15:10:42;27.50;56.80
11838;DHT22;5978;51.020;6.764;2023-05-15T15:13:08;28.60;57.40
11838;DHT22;5978;51.020;6.764;2023-05-15T15:15:36;28.80;55.30
11838;DHT22;5978;51.020;6.764;2023-05-15T15:18:02;28.60;54.20
11838;DHT22;5978;51.020;6.764;2023-05-15T15:20:28;28.40;53.80
11838;DHT22;5978;51.020;6.764;2023-05-15T15:22:54;28.20;54.30
11838;DHT22;5978;51.020;6.764;2023-05-15T15:25:20;28.50;54.90
11838;DHT22;5978;51.020;6.764;2023-05-15T15:27:47;28.70;54.80
11838;DHT22;5978;51.020;6.764;2023-05-15T15:30:13;28.90;54.10
11838;DHT22;5978;51.020;6.764;2023-05-15T15:32:40;28.40;54.60
11838;DHT22;5978;51.020;6.764;2023-05-15T15:35:06;27.40;55.40
11838;DHT22;5978;51.020;6.764;2023-05-15T15:37:33;26.70;56.40
11838;DHT22;5978;51.020;6.764;2023-05-15T15:40:00;25.60;57.10
11838;DHT22;5978;51.020;6.764;2023-05-15T15:42:27;24.70;58.30
11838;DHT22;5978;51.020;6.764;2023-05-15T15:44:54;24.30;60.40
11838;DHT22;5978;51.020;6.764;2023-05-15T15:47:20;23.60;61.80
11838;DHT22;5978;51.020;6.764;2023-05-15T15:49:45;23.40;64.10
11838;DHT22;5978;51.020;6.764;2023-05-15T15:52:11;23.30;66.50
11838;DHT22;5978;51.020;6.764;2023-05-15T15:54:37;22.80;70.30
11838;DHT22;5978;51.020;6.764;2023-05-15T15:57:04;22.60;74.90
11838;DHT22;5978;51.020;6.764;2023-05-15T15:59:30;22.30;79.30
11838;DHT22;5978;51.020;6.764;2023-05-15T16:01:55;22.20;86.60
11838;DHT22;5978;51.020;6.764;2023-05-15T16:04:21;22.00;91.00
11838;DHT22;5978;51.020;6.764;2023-05-15T16:06:47;21.60;94.30
11838;DHT22;5978;51.020;6.764;2023-05-15T16:09:13;21.50;97.90
11838;DHT22;5978;51.020;6.764;2023-05-15T16:11:39;21.30;99.90